Latest Weather Observations for Gelantipy

IDV60801

Issued at 5:02 am EST Tuesday 4 August 2015 (issued every 30 minutes, with the page automatically refreshed every 10 minutes)

About weather observations | Map of weather stations | Latest weather observations for VIC | Other Formats
Station Details ID: 084142 Name: GELANTIPY Lat: -37.22 Lon: 148.26 Height: 755.0 m
Data from the previous 72 hours. | See also: Recent months at Gelantipy
Date/Time
EST
Temp
°C
App
Temp
°C
Dew
Point
Rel
Hum
%
Delta-T
°C
Wind Press
QNH
hPa
Press
MSL
hPa
Rain
since 9 am
mm
Dir
 
Spd
km/h
Gust
km/h
Spd
kts
Gust
kts
04/05:00am -0.9 -4.8 -4.8 75 1.3 WNW 7 11 4 6 1019.6 1020.4 3.4
04/04:30am -0.7 -4.4 -4.2 77 1.2 WNW 6 9 3 5 1019.6 1020.4 3.4
04/04:00am -1.0 -5.2 -3.5 83 0.8 W 9 11 5 6 1019.6 1020.4 3.4
04/03:30am -1.3 -5.9 -4.0 82 0.9 W 11 15 6 8 1019.6 1020.4 3.4
04/03:00am -1.2 -5.4 -4.2 80 1.0 WNW 9 13 5 7 1019.6 1020.4 3.4
04/02:30am -1.1 -5.0 -4.3 79 1.0 SW 7 11 4 6 1019.9 1020.6 3.4
04/02:00am -1.4 -5.3 -4.4 80 0.9 WSW 7 15 4 8 1019.9 1020.6 3.4
04/01:30am -1.3 -4.6 -4.3 80 0.9 S 4 7 2 4 1020.1 1020.8 3.4
04/01:00am -1.1 -5.3 -4.3 79 1.0 WSW 9 13 5 7 1019.9 1020.6 3.4
04/12:30am -0.6 -4.8 -4.3 76 1.2 WSW 9 13 5 7 1020.0 1020.7 3.4
04/12:00am -0.2 -6.3 -4.3 74 1.4 WSW 19 24 10 13 1019.9 1020.6 3.4
 
Date/Time
EST
Temp
°C
App
Temp
°C
Dew
Point
Rel
Hum
%
Delta-T
°C
Wind Press
QNH
hPa
Press
MSL
hPa
Rain
since 9 am
mm
Dir
 
Spd
km/h
Gust
km/h
Spd
kts
Gust
kts
03/11:30pm -0.1 -5.9 -4.2 74 1.4 WSW 17 24 9 13 1019.7 1020.5 3.4
03/11:00pm 0.0 -5.7 -3.9 75 1.3 WSW 17 28 9 15 1019.6 1020.4 3.4
03/10:30pm 0.2 -6.0 -3.5 76 1.3 WSW 20 28 11 15 1019.6 1020.4 3.4
03/10:00pm 0.2 -5.5 -3.5 76 1.3 SW 17 28 9 15 1019.7 1020.5 3.4
03/09:30pm 0.6 -4.7 -3.5 74 1.5 SW 15 24 8 13 1019.5 1020.3 3.4
03/09:00pm 0.8 -4.8 -2.9 76 1.4 SW 17 24 9 13 1019.6 1020.4 3.4
03/08:30pm 1.1 -5.9 -3.2 73 1.6 SW 24 37 13 20 1019.1 1019.8 3.4
03/08:00pm 0.2 -5.8 -3.2 78 1.2 SW 19 24 10 13 1019.2 1019.9 3.4
03/07:30pm 0.6 -3.9 -3.3 75 1.4 SW 11 20 6 11 1019.1 1019.8 3.4
03/07:00pm 1.2 -5.0 -2.9 74 1.5 SW 20 35 11 19 1018.6 1019.3 3.4
03/06:30pm 1.1 -3.2 -1.3 84 0.9 SW 11 17 6 9 1018.2 1019.0 3.4
03/06:00pm 1.4 -2.1 -1.2 83 1.0 S 7 9 4 5 1017.8 1018.5 3.4
03/05:30pm 1.8 -3.7 -2.1 75 1.4 SW 17 22 9 12 1017.1 1017.7 3.4
03/05:00pm 1.9 -4.4 -1.0 81 1.1 WSW 22 30 12 16 1016.5 1017.2 3.4
03/04:30pm 1.9 -4.0 -0.5 84 0.9 WSW 20 28 11 15 1016.2 1016.9 3.4
03/04:00pm 1.8 -3.9 -0.8 83 1.0 SW 19 28 10 15 1015.9 1016.5 3.4
03/03:30pm 2.1 -2.3 0.2 87 0.7 SSW 13 20 7 11 1015.3 1016.0 3.4
03/03:00pm 3.1 -2.1 0.2 81 1.1 SW 17 32 9 17 1014.9 1015.6 3.4
03/02:30pm 1.9 -4.1 1.0 94 0.4 SW 22 35 12 19 1014.7 1015.3 3.4
03/02:00pm 1.3 -4.8 0.6 95 0.3 WSW 22 32 12 17 1014.4 1015.0 3.4
03/01:30pm 0.8 -6.4 0.7 99 0.0 WSW 28 37 15 20 1013.9 1014.6 3.2
03/01:00pm 0.0 -6.2 -0.3 98 0.1 SSW 22 43 12 23 1013.8 1014.5 3.0
03/12:30pm 0.9 -5.2 0.6 98 0.1 SW 22 39 12 21 1013.2 1013.8 2.6
03/12:00pm 1.5 -3.5 1.1 97 0.2 SSW 17 33 9 18 1012.6 1013.3 2.2
03/11:30am 2.1 -1.4 1.4 95 0.3 SW 9 17 5 9 1012.4 1013.0 1.0
03/11:00am 3.2 -0.9 2.0 92 0.5 SSW 13 22 7 12 1011.9 1012.5 0.0
03/10:30am 6.1 -0.9 1.8 74 1.8 W 28 54 15 29 1011.5 1012.1 0.0
03/10:13am 7.4 0.1 0.2 60 3.0 WNW 28 50 15 27 1011.1 1011.7 0.0
03/10:00am 7.2 0.4 0.9 64 2.6 WNW 26 43 14 23 1010.8 1011.4 0.0
03/09:30am 7.2 -0.2 -0.5 58 3.1 W 28 43 15 23 1010.5 1011.1 0.0
03/09:00am 6.6 0.4 -0.1 62 2.7 WNW 22 39 12 21 1010.2 1010.7 1.0
03/08:30am 6.4 1.1 -0.8 60 2.9 WNW 17 30 9 16 1009.8 1010.4 1.0
03/08:00am 5.8 -0.8 -0.7 63 2.6 NW 24 37 13 20 1009.7 1010.3 1.0
03/07:30am 5.0 -0.7 -1.0 65 2.3 WNW 19 32 10 17 1009.3 1009.9 1.0
03/07:00am 5.1 -2.3 -0.9 65 2.4 NW 28 46 15 25 1008.8 1009.3 1.0
03/06:53am 5.2 -2.2 -0.8 65 2.4 NW 28 46 15 25 1008.6 1009.1 1.0
03/06:30am 5.2 -1.8 -0.8 65 2.4 NW 26 43 14 23 1008.7 1009.2 1.0
03/06:08am 5.3 -2.0 -0.3 67 2.2 WNW 28 46 15 25 1008.9 1009.4 1.0
03/06:00am 5.2 -1.0 -0.4 67 2.2 NW 22 30 12 16 1008.8 1009.3 1.0
03/05:38am 5.9 -0.7 -0.2 65 2.5 NW 24 56 13 30 1008.5 1009.0 1.0
03/05:30am 5.7 -0.1 0.1 67 2.3 NW 20 35 11 19 1008.3 1008.9 1.0
03/05:00am 6.0 -0.6 -0.1 65 2.5 WNW 24 44 13 24 1008.3 1008.9 1.0
03/04:30am 6.0 -1.4 -0.5 63 2.6 WNW 28 56 15 30 1007.9 1008.4 1.0
03/04:10am 6.1 -1.3 -0.4 63 2.6 WNW 28 46 15 25 1007.6 1008.1 1.0
03/04:00am 5.8 -0.1 -0.5 64 2.5 NW 20 37 11 20 1007.8 1008.3 1.0
03/03:30am 5.9 -0.4 -0.8 62 2.7 WNW 22 41 12 22 1007.7 1008.2 1.0
03/03:00am 5.3 0.7 -0.7 65 2.4 NW 13 22 7 12 1007.9 1008.4 1.0
03/02:30am 6.1 0.3 0.2 66 2.4 NNW 20 35 11 19 1008.0 1008.5 1.0
03/02:00am 6.4 0.2 -0.3 62 2.7 NNW 22 41 12 22 1007.9 1008.4 1.0
03/01:30am 6.6 0.4 -0.4 61 2.8 NNW 22 44 12 24 1007.6 1008.1 1.0
03/01:23am 6.6 0.0 -0.1 62 2.7 NNW 24 44 13 24 1007.5 1008.0 1.0
03/01:00am 6.8 2.4 0.5 64 2.6 NNW 13 24 7 13 1008.0 1008.5 1.0
03/12:30am 7.0 3.0 0.5 63 2.7 N 11 35 6 19 1007.9 1008.4 1.0
03/12:00am 6.8 1.1 0.7 65 2.5 NNW 20 43 11 23 1007.8 1008.3 1.0
 
Date/Time
EST
Temp
°C
App
Temp
°C
Dew
Point
Rel
Hum
%
Delta-T
°C
Wind Press
QNH
hPa
Press
MSL
hPa
Rain
since 9 am
mm
Dir
 
Spd
km/h
Gust
km/h
Spd
kts
Gust
kts
02/11:30pm 6.7 1.2 0.4 64 2.6 NNW 19 37 10 20 1008.2 1008.8 1.0
02/11:00pm 6.3 1.1 0.0 64 2.6 NNW 17 28 9 15 1008.9 1009.4 1.0
02/10:30pm 5.9 0.6 -0.4 64 2.5 NNW 17 33 9 18 1008.9 1009.4 1.0
02/10:00pm 6.1 -1.6 0.0 65 2.5 NW 30 50 16 27 1009.4 1010.0 1.0
02/09:59pm 6.3 -1.1 -0.4 62 2.7 NW 28 50 15 27 1009.3 1009.9 1.0
02/09:30pm 6.0 -0.7 -0.9 61 2.7 NW 24 44 13 24 1010.1 1010.6 1.0
02/09:00pm 5.6 -1.1 -1.3 61 2.7 NW 24 32 13 17 1010.4 1011.0 1.0
02/08:30pm 4.8 0.1 -1.6 63 2.5 NNW 13 20 7 11 1010.5 1011.1 1.0
02/08:00pm 5.0 -1.0 -1.7 62 2.6 NNW 20 33 11 18 1010.4 1011.0 1.0
02/07:30pm 5.1 -2.1 -1.8 61 2.6 NNW 26 43 14 23 1010.1 1010.6 1.0
02/07:00pm 5.3 -2.7 -2.3 58 2.9 NW 30 46 16 25 1010.5 1011.1 1.0
02/06:46pm 4.9 -2.7 -2.0 61 2.6 WNW 28 46 15 25 1010.7 1011.3 1.0
02/06:30pm 5.6 -2.0 -2.5 56 3.1 WNW 28 39 15 21 1010.3 1010.8 1.0
02/06:09pm 5.7 -0.4 -2.6 55 3.1 NW 20 44 11 24 1009.4 1010.0 1.0
02/06:00pm 5.1 -0.3 -1.6 62 2.6 NW 17 22 9 12 1009.3 1009.9 1.0
02/05:30pm 5.9 0.9 -1.5 59 2.9 NNW 15 22 8 12 1008.3 1008.9 1.0
02/05:00pm 7.4 2.1 -0.3 58 3.1 NNW 17 28 9 15 1008.0 1008.5 1.0
02/04:30pm 8.5 3.2 -0.8 52 3.8 NW 17 30 9 16 1007.8 1008.3 1.0
02/04:00pm 9.2 3.4 0.1 53 3.8 NW 20 30 11 16 1007.8 1008.3 1.0
02/03:30pm 9.6 4.2 1.3 56 3.6 WNW 19 30 10 16 1007.9 1008.4 1.0
02/03:00pm 9.9 4.5 2.3 59 3.4 W 20 26 11 14 1007.4 1007.9 1.0
02/02:30pm 10.3 7.6 3.8 64 3.0 NNE 7 13 4 7 1007.1 1007.6 1.0
02/02:00pm 10.1 5.3 2.5 59 3.4 WNW 17 32 9 17 1007.1 1007.6 1.0
02/01:30pm 9.5 3.9 3.7 67 2.6 WNW 22 33 12 18 1006.9 1007.5 1.0
02/01:00pm 7.2 5.1 6.0 92 0.6 SE 6 11 3 6 1007.3 1007.8 1.0
02/12:30pm 6.1 3.2 4.9 92 0.5 N 9 17 5 9 1007.9 1008.4 1.0
02/12:00pm 5.2 2.3 4.8 97 0.2 NE 9 13 5 7 1008.3 1008.9 1.0
02/11:30am 4.4 1.8 4.1 98 0.1 NE 7 11 4 6 1009.1 1009.6 1.0
02/11:00am 3.9 2.5 3.6 98 0.1 CALM 0 2 0 1 1009.7 1010.3 1.0
02/10:30am 3.6 2.2 3.3 98 0.1 CALM 0 4 0 2 1009.8 1010.4 0.8
02/10:00am 3.0 1.4 2.7 98 0.1 CALM 0 4 0 2 1010.2 1010.7 0.4
02/09:30am 3.1 0.4 2.7 97 0.2 SSW 6 7 3 4 1010.2 1010.7 0.2
02/09:00am 3.2 0.3 2.6 96 0.3 SSW 7 11 4 6 1010.5 1011.1 5.2
02/08:30am 3.5 0.6 2.8 95 0.3 SSW 7 9 4 5 1010.5 1011.1 5.0
02/08:00am 3.9 1.3 3.3 96 0.3 SW 6 9 3 5 1010.6 1011.2 4.8
02/07:30am 4.5 2.4 3.9 96 0.3 SSW 4 9 2 5 1010.3 1010.8 4.2
02/07:00am 4.8 2.7 3.8 93 0.4 S 4 7 2 4 1010.1 1010.6 4.0
02/06:30am 5.9 3.2 3.7 86 1.0 NNE 7 11 4 6 1010.0 1010.5 3.8
02/06:00am 5.9 2.1 3.7 86 1.0 N 13 15 7 8 1010.0 1010.5 3.8
02/05:30am 6.0 2.5 3.5 84 1.1 N 11 13 6 7 1010.3 1010.8 3.8
02/05:00am 6.2 3.1 3.5 83 1.2 N 9 11 5 6 1010.8 1011.4 3.8
02/04:30am 6.3 2.8 3.5 82 1.2 N 11 15 6 8 1011.1 1011.7 3.8
02/04:00am 6.0 1.4 3.5 84 1.1 N 17 22 9 12 1011.4 1011.9 3.8
02/03:30am 5.0 0.8 3.8 92 0.5 N 15 20 8 11 1011.8 1012.4 3.8
02/03:00am 5.0 0.8 4.0 93 0.4 NNE 15 20 8 11 1012.3 1012.9 3.8
02/02:30am 4.0 1.4 3.1 94 0.4 N 6 13 3 7 1012.5 1013.1 3.8
02/02:00am 3.3 0.8 1.8 90 0.6 NW 4 9 2 5 1013.1 1013.7 3.8
02/01:30am 3.0 -0.1 1.5 90 0.6 WNW 7 9 4 5 1013.3 1013.9 3.8
02/01:00am 3.3 0.3 1.7 89 0.7 NNW 7 11 4 6 1013.5 1014.1 3.8
02/12:30am 3.1 -0.4 1.0 86 0.8 NW 9 11 5 6 1013.6 1014.2 3.8
02/12:00am 3.0 0.6 2.3 95 0.3 N 4 7 2 4 1013.9 1014.6 3.8
 
Date/Time
EST
Temp
°C
App
Temp
°C
Dew
Point
Rel
Hum
%
Delta-T
°C
Wind Press
QNH
hPa
Press
MSL
hPa
Rain
since 9 am
mm
Dir
 
Spd
km/h
Gust
km/h
Spd
kts
Gust
kts
01/11:30pm 3.0 -0.3 2.4 96 0.2 WSW 9 13 5 7 1014.4 1015.0 3.8
01/11:00pm 3.1 1.1 2.2 94 0.4 E 2 7 1 4 1014.2 1014.8 3.8
01/10:30pm 3.5 0.6 2.6 94 0.4 NNE 7 9 4 5 1014.2 1014.8 3.8
01/10:00pm 3.2 0.9 2.6 96 0.3 W 4 9 2 5 1013.9 1014.6 3.8
01/09:30pm 3.3 1.4 2.6 95 0.3 SW 2 7 1 4 1014.7 1015.3 3.8
01/09:00pm 3.4 0.2 3.0 97 0.2 SW 9 19 5 10 1014.8 1015.4 3.8
01/08:30pm 3.5 0.4 3.4 99 0.0 NE 9 17 5 9 1013.8 1014.5 3.8
01/08:00pm 3.4 0.6 3.3 99 0.0 NW 7 11 4 6 1014.9 1015.6 3.8
01/07:30pm 3.6 2.2 3.5 99 0.0 CALM 0 0 0 0 1014.7 1015.3 3.8
01/07:00pm 3.6 1.1 3.5 99 0.0 SSE 6 9 3 5 1014.4 1015.0 3.8
01/06:30pm 4.4 2.4 4.4 100 0.0 S 4 9 2 5 1014.3 1014.9 3.8
01/06:00pm 4.4 1.8 4.3 99 0.0 S 7 13 4 7 1013.7 1014.4 3.8
01/05:30pm 4.5 1.2 4.4 99 0.0 S 11 19 6 10 1013.5 1014.1 3.8
01/05:00pm 4.8 0.7 4.5 98 0.1 SSW 15 26 8 14 1013.3 1013.9 3.8
01/04:30pm 5.0 2.1 4.9 99 0.0 N 9 15 5 8 1012.9 1013.5 3.8
01/04:00pm 5.0 2.7 4.9 99 0.0 SSW 6 9 3 5 1012.9 1013.5 3.0
01/03:30pm 5.2 2.4 5.1 99 0.0 S 9 13 5 7 1012.9 1013.5 2.6
01/03:00pm 5.7 2.2 5.4 98 0.1 S 13 20 7 11 1012.3 1012.9 1.8
01/02:30pm 7.9 4.9 7.5 97 0.2 S 13 17 7 9 1011.6 1012.2 1.0
01/02:00pm 9.1 6.9 7.9 92 0.6 S 9 17 5 9 1011.1 1011.7 0.2
01/01:30pm 10.2 6.1 6.2 76 1.9 W 17 24 9 13 1010.9 1011.5 0.0
01/01:00pm 10.6 6.5 6.0 73 2.2 WNW 17 22 9 12 1011.0 1011.6 0.0
01/12:30pm 11.4 6.2 5.5 67 2.8 WNW 22 32 12 17 1010.8 1011.4 0.0
01/12:00pm 11.7 7.0 5.3 65 3.1 NW 19 32 10 17 1010.7 1011.3 0.0
01/11:30am 11.9 9.3 6.0 67 2.9 NNW 9 19 5 10 1010.7 1011.3 0.0
01/11:00am 11.9 8.1 6.0 67 2.9 NW 15 26 8 14 1010.9 1011.5 0.0
01/10:30am 12.9 8.5 6.7 66 3.1 NW 19 43 10 23 1010.1 1010.6 0.0
01/10:02am 11.7 5.3 5.3 65 3.1 NNW 28 48 15 26 1009.3 1009.9 0.0
01/10:00am 11.7 5.3 5.3 65 3.1 NNW 28 43 15 23 1009.1 1009.6 0.0
01/09:30am 12.1 5.7 5.0 62 3.4 NNW 28 50 15 27 1009.0 1009.9 0.0
01/09:01am 11.5 4.8 3.8 59 3.6 NNW 28 48 15 26 1008.9 1009.8 0.0
01/09:00am 11.5 5.2 4.0 60 3.5 NNW 26 48 14 26 1008.8 1009.7 0.0
01/08:30am 10.8 2.7 3.1 59 3.5 NNW 35 61 19 33 1008.9 1009.8 0.0
01/08:00am 10.5 1.3 3.5 62 3.2 NNW 41 70 22 38 1008.7 1009.6 0.0
01/07:30am 10.4 1.9 3.4 62 3.2 NW 37 56 20 30 1008.6 1009.5 0.0
01/07:00am 10.3 1.5 3.6 63 3.1 NW 39 69 21 37 1008.8 1009.7 0.0
01/06:40am 10.3 2.2 3.1 61 3.3 NW 35 72 19 39 1008.8 1009.7 0.0
01/06:30am 9.9 2.4 3.2 63 3.0 NW 32 54 17 29 1009.1 1010.0 0.0
01/06:00am 9.8 1.6 2.9 62 3.1 NW 35 56 19 30 1009.2 1010.1 0.0
01/05:30am 9.6 2.0 2.9 63 3.0 NNW 32 56 17 30 1009.4 1010.3 0.0
01/05:26am 9.5 2.6 2.8 63 3.0 NW 28 56 15 30 1009.3 1010.2 0.0

Other Formats:

Comma delimited format used in spreadsheet applications
http://www.bom.gov.au/fwo/IDV60801/IDV60801.94913.axf

JavaScript Object Notation format (JSON) in row-major order
http://www.bom.gov.au/fwo/IDV60801/IDV60801.94913.json